Time;durP1;ratioP1;P1;durP2;ratioP2;P2;SDS_P1;SDS_P2;PMS_P1;PMS_P2;Temp;Humidity;BMP_temperature;BMP_pressure;BME280_temperature;BME280_humidity;BME280_pressure;Samples;Min_cycle;Max_cycle;Signal;HPM_P1;HPM_P2
2021/11/26 00:00:19;;;;;;;36.05;9.00;;;;;;;2.76;100.00;100872.06;5188964;28;20034;-81
2021/11/26 00:02:49;;;;;;;44.67;11.00;;;;;;;2.83;100.00;100873.28;5189157;28;20118;-81
2021/11/26 00:05:20;;;;;;;28.95;7.57;;;;;;;2.84;100.00;100868.81;5187958;28;20025;-80
2021/11/26 00:07:50;;;;;;;43.42;12.55;;;;;;;2.88;100.00;100867.63;5188796;28;20029;-80
2021/11/26 00:10:21;;;;;;;24.80;9.73;;;;;;;2.90;100.00;100857.75;5173278;28;20448;-81
2021/11/26 00:12:58;;;;;;;42.20;9.88;;;;;;;2.94;100.00;100864.50;5170697;28;20018;-80
2021/11/26 00:18:09;;;;;;;38.10;9.95;;;;;;;3.07;100.00;100843.22;5188595;28;20068;-81
2021/11/26 00:20:39;;;;;;;29.63;7.28;;;;;;;3.13;100.00;100841.91;5186011;28;20018;-78
2021/11/26 00:23:10;;;;;;;28.42;8.32;;;;;;;3.14;100.00;100844.44;5184602;28;20026;-78
2021/11/26 00:25:41;;;;;;;30.20;8.90;;;;;;;3.13;100.00;100832.16;5184239;28;20500;-77
2021/11/26 00:28:12;;;;;;;29.25;7.78;;;;;;;3.21;100.00;100821.78;5184528;28;20022;-77
2021/11/26 00:30:42;;;;;;;25.80;7.63;;;;;;;3.21;100.00;100824.44;5184460;28;20032;-78
2021/11/26 00:33:13;;;;;;;28.77;7.20;;;;;;;3.32;100.00;100811.19;5183297;28;20037;-77
2021/11/26 00:35:43;;;;;;;29.80;7.75;;;;;;;3.44;100.00;100812.03;5184402;28;20030;-77
2021/11/26 00:38:14;;;;;;;29.67;6.97;;;;;;;3.37;100.00;100803.72;5184119;28;20014;-78
2021/11/26 00:40:45;;;;;;;25.02;7.47;;;;;;;3.39;100.00;100798.28;5184480;28;20026;-78
2021/11/26 00:43:15;;;;;;;28.30;8.13;;;;;;;3.41;100.00;100792.84;5184215;28;20061;-78
2021/11/26 00:45:45;;;;;;;26.27;7.40;;;;;;;3.48;100.00;100786.13;5183966;28;20028;-78
2021/11/26 00:48:16;;;;;;;23.20;8.10;;;;;;;3.53;100.00;100791.91;5184108;28;20109;-78
2021/11/26 00:50:46;;;;;;;17.58;6.00;;;;;;;3.60;100.00;100782.47;5183981;28;20497;-78
2021/11/26 00:53:18;;;;;;;24.55;6.65;;;;;;;3.57;100.00;100780.94;5183869;28;20500;-78
2021/11/26 00:55:48;;;;;;;18.45;5.60;;;;;;;3.55;100.00;100782.00;5183904;28;20026;-79
2021/11/26 00:58:18;;;;;;;27.95;7.15;;;;;;;3.51;100.00;100780.53;5184027;28;20040;-78
2021/11/26 01:00:49;;;;;;;21.75;6.72;;;;;;;3.49;100.00;100777.19;5184592;28;20018;-78
2021/11/26 01:03:20;;;;;;;27.35;6.30;;;;;;;3.51;100.00;100772.59;5174222;28;20033;-78
2021/11/26 01:05:51;;;;;;;20.67;5.40;;;;;;;3.49;100.00;100766.56;5180666;28;20030;-78
2021/11/26 01:08:21;;;;;;;22.67;6.05;;;;;;;3.48;100.00;100760.44;5184528;28;20037;-78
2021/11/26 01:10:53;;;;;;;18.95;5.75;;;;;;;3.45;100.00;100758.00;5185371;28;20465;-78
2021/11/26 01:13:23;;;;;;;18.00;5.65;;;;;;;3.51;100.00;100761.97;5189450;28;20042;-79
2021/11/26 01:15:54;;;;;;;22.17;7.60;;;;;;;3.57;100.00;100758.84;5179331;28;20050;-78
2021/11/26 01:18:25;;;;;;;22.38;5.88;;;;;;;3.53;100.00;100750.28;5164737;28;20584;-78
2021/11/26 01:20:55;;;;;;;19.73;6.50;;;;;;;3.54;100.00;100753.78;5163468;28;20381;-78
2021/11/26 01:23:26;;;;;;;22.48;5.55;;;;;;;3.52;100.00;100753.09;5166911;28;20378;-78
2021/11/26 01:25:56;;;;;;;23.98;6.60;;;;;;;3.50;100.00;100745.22;5184814;28;20037;-78
2021/11/26 01:28:27;;;;;;;29.27;6.82;;;;;;;3.50;100.00;100741.72;5167966;28;20402;-78
2021/11/26 01:30:58;;;;;;;22.60;6.72;;;;;;;3.52;100.00;100739.81;5184411;28;20166;-78
2021/11/26 01:33:28;;;;;;;23.33;6.43;;;;;;;3.52;100.00;100735.34;5172004;28;20018;-78
2021/11/26 01:35:59;;;;;;;24.92;7.03;;;;;;;3.55;100.00;100729.78;5182763;28;20089;-78
2021/11/26 01:38:29;;;;;;;25.50;8.52;;;;;;;3.56;100.00;100725.31;5182942;28;20072;-78
2021/11/26 01:41:00;;;;;;;28.15;7.28;;;;;;;3.55;100.00;100721.00;5161610;28;20026;-78
2021/11/26 01:43:31;;;;;;;23.58;7.18;;;;;;;3.57;100.00;100714.59;5162859;28;20075;-78
2021/11/26 01:46:08;;;;;;;22.95;7.20;;;;;;;3.56;100.00;100712.06;5162750;28;20057;-78
2021/11/26 01:48:41;;;;;;;31.35;7.60;;;;;;;3.55;100.00;100705.06;5162673;28;20022;-78
2021/11/26 01:51:11;;;;;;;28.83;7.00;;;;;;;3.54;100.00;100698.09;5162409;28;20041;-78
2021/11/26 01:53:42;;;;;;;33.95;8.57;;;;;;;3.52;100.00;100705.34;5162940;28;20022;-78
2021/11/26 01:56:13;;;;;;;33.70;7.45;;;;;;;3.53;100.00;100694.59;5162395;28;20497;-78
2021/11/26 01:58:43;;;;;;;28.33;7.72;;;;;;;3.53;100.00;100686.63;5162614;28;20088;-77
2021/11/26 02:01:14;;;;;;;24.40;8.10;;;;;;;3.51;100.00;100677.94;5162553;28;20053;-78
2021/11/26 02:03:45;;;;;;;28.95;7.65;;;;;;;3.52;100.00;100671.69;5162821;28;20038;-78
2021/11/26 02:06:16;;;;;;;25.20;7.10;;;;;;;3.52;100.00;100669.03;5163940;28;20049;-80
2021/11/26 02:08:49;;;;;;;23.25;7.45;;;;;;;3.53;100.00;100667.22;5179274;28;20038;-79
2021/11/26 02:11:20;;;;;;;24.42;6.95;;;;;;;3.56;100.00;100661.66;5182718;28;20026;-79
2021/11/26 02:13:50;;;;;;;22.98;7.07;;;;;;;3.55;100.00;100657.31;5174577;28;20609;-79
2021/11/26 02:16:21;;;;;;;28.25;6.82;;;;;;;3.54;100.00;100658.28;5182834;28;20032;-79
2021/11/26 02:18:51;;;;;;;29.20;6.35;;;;;;;3.55;100.00;100647.56;5165661;28;20566;-79
2021/11/26 02:21:36;;;;;;;19.10;6.70;;;;;;;3.55;100.00;100641.41;5178568;28;20030;-79
2021/11/26 02:24:07;;;;;;;28.13;6.05;;;;;;;3.59;100.00;100640.19;5189768;28;20037;-79
2021/11/26 02:26:41;;;;;;;22.27;6.20;;;;;;;3.55;100.00;100636.94;5194097;28;20110;-79
2021/11/26 02:29:14;;;;;;;14.65;4.78;;;;;;;3.62;100.00;100629.34;5170412;28;20509;-79
2021/11/26 02:31:45;;;;;;;22.10;5.82;;;;;;;3.59;100.00;100619.81;5180085;28;20796;-79
2021/11/26 02:34:17;;;;;;;18.02;5.45;;;;;;;3.57;100.00;100618.28;5182318;28;20109;-79
2021/11/26 02:36:47;;;;;;;16.20;5.10;;;;;;;3.57;100.00;100615.63;5181379;28;20087;-79
2021/11/26 02:39:18;;;;;;;18.30;4.72;;;;;;;3.58;100.00;100612.84;5182597;28;20041;-79
2021/11/26 02:41:49;;;;;;;15.77;5.55;;;;;;;3.63;100.00;100604.50;5181349;28;20608;-79
2021/11/26 02:44:22;;;;;;;25.70;5.80;;;;;;;3.66;100.00;100609.53;5182282;28;20056;-79
2021/11/26 02:46:52;;;;;;;18.50;4.82;;;;;;;3.71;100.00;100615.28;5173702;28;20494;-79
2021/11/26 02:49:24;;;;;;;19.30;5.00;;;;;;;3.68;100.00;100604.13;5162131;28;20101;-79
2021/11/26 02:51:57;;;;;;;14.48;4.95;;;;;;;3.69;100.00;100603.97;5173070;28;20033;-78
2021/11/26 02:54:27;;;;;;;23.27;6.13;;;;;;;3.66;100.00;100596.25;5166110;28;20030;-79
2021/11/26 02:57:00;;;;;;;18.27;4.60;;;;;;;3.63;100.00;100599.19;5164728;28;20058;-80
2021/11/26 02:59:31;;;;;;;20.65;6.00;;;;;;;3.62;100.00;100589.56;5194160;28;20029;-78
2021/11/26 03:02:02;;;;;;;17.60;4.93;;;;;;;3.59;100.00;100584.50;5172785;28;20034;-79
2021/11/26 03:04:33;;;;;;;17.50;5.68;;;;;;;3.57;100.00;100584.63;5176937;28;20060;-79
2021/11/26 03:07:06;;;;;;;18.65;5.15;;;;;;;3.56;100.00;100587.38;5186543;28;20045;-76
2021/11/26 03:09:38;;;;;;;20.45;5.65;;;;;;;3.54;100.00;100576.91;5175853;28;20022;-78
2021/11/26 03:12:10;;;;;;;14.43;5.85;;;;;;;3.55;100.00;100570.63;5163946;28;20548;-79
2021/11/26 03:14:41;;;;;;;25.15;7.38;;;;;;;3.56;100.00;100558.22;5173982;28;20423;-80
2021/11/26 03:17:11;;;;;;;20.85;5.88;;;;;;;3.55;100.00;100552.06;5182457;28;20064;-81
2021/11/26 03:19:42;;;;;;;26.58;7.13;;;;;;;3.53;100.00;100547.88;5182699;28;20022;-79
2021/11/26 03:22:12;;;;;;;21.92;7.13;;;;;;;3.54;100.00;100533.63;5182765;28;20026;-80
2021/11/26 03:24:43;;;;;;;25.77;8.38;;;;;;;3.54;100.00;100530.97;5182389;28;20513;-78
2021/11/26 03:27:13;;;;;;;31.20;8.63;;;;;;;3.53;100.00;100527.50;5174947;28;20134;-79
2021/11/26 03:29:44;;;;;;;31.27;12.13;;;;;;;3.54;100.00;100517.72;5165136;28;20109;-79
2021/11/26 03:32:14;;;;;;;30.38;9.98;;;;;;;3.53;100.00;100516.88;5184486;28;20114;-79
2021/11/26 03:34:45;;;;;;;38.67;10.45;;;;;;;3.51;100.00;100505.53;5199162;28;20441;-80
2021/11/26 03:37:15;;;;;;;35.45;11.23;;;;;;;3.52;100.00;100501.09;5203139;28;20029;-79
2021/11/26 03:39:46;;;;;;;36.47;11.00;;;;;;;3.51;100.00;100497.59;5193548;28;20508;-79
2021/11/26 03:42:17;;;;;;;29.27;10.18;;;;;;;3.50;100.00;100489.78;5186064;28;20041;-81
2021/11/26 03:44:47;;;;;;;29.58;10.85;;;;;;;3.45;100.00;100481.34;5185375;28;20025;-79
2021/11/26 03:47:18;;;;;;;35.17;10.88;;;;;;;3.41;100.00;100477.28;5185249;28;20021;-79
2021/11/26 03:49:48;;;;;;;31.13;11.15;;;;;;;3.36;100.00;100470.56;5185132;28;20029;-79
2021/11/26 03:52:19;;;;;;;31.08;10.55;;;;;;;3.34;100.00;100467.19;5185740;28;20333;-79
2021/11/26 03:54:50;;;;;;;35.00;10.80;;;;;;;3.33;100.00;100462.03;5185261;28;20026;-79
2021/11/26 03:57:20;;;;;;;43.13;12.80;;;;;;;3.31;100.00;100456.00;5185275;28;20060;-79
2021/11/26 03:59:51;;;;;;;31.08;10.82;;;;;;;3.29;100.00;100450.84;5186052;28;20022;-80
2021/11/26 04:02:21;;;;;;;29.88;11.15;;;;;;;3.27;100.00;100446.63;5179816;28;20030;-80
2021/11/26 04:04:52;;;;;;;37.47;11.70;;;;;;;3.25;100.00;100445.91;5183215;28;20029;-79
2021/11/26 04:07:22;;;;;;;40.88;12.57;;;;;;;3.22;100.00;100436.41;5167835;28;20038;-79
2021/11/26 04:09:53;;;;;;;33.90;11.60;;;;;;;3.20;100.00;100424.25;5164882;28;20026;-78
2021/11/26 04:12:24;;;;;;;32.63;11.45;;;;;;;3.17;100.00;100424.53;5168167;28;20096;-80
2021/11/26 04:14:55;;;;;;;47.42;12.40;;;;;;;3.15;100.00;100416.69;5177073;28;20025;-79
2021/11/26 04:17:25;;;;;;;34.35;11.35;;;;;;;3.14;100.00;100412.34;5184580;28;20034;-78
2021/11/26 04:19:56;;;;;;;35.97;11.05;;;;;;;3.11;100.00;100410.81;5185339;28;20021;-80
2021/11/26 04:22:26;;;;;;;28.90;10.73;;;;;;;3.11;100.00;100405.53;5184990;28;20112;-78
2021/11/26 04:24:57;;;;;;;35.88;12.65;;;;;;;3.09;100.00;100402.13;5184418;28;20030;-78
2021/11/26 04:27:27;;;;;;;34.85;10.88;;;;;;;3.08;100.00;100403.13;5184225;28;20022;-79
2021/11/26 04:29:57;;;;;;;39.10;11.40;;;;;;;3.08;100.00;100395.16;5184276;28;20084;-78
2021/11/26 04:32:28;;;;;;;40.92;14.10;;;;;;;3.08;100.00;100395.16;5184878;28;20101;-80
2021/11/26 04:34:59;;;;;;;97.75;29.38;;;;;;;3.10;100.00;100387.06;5184415;28;20473;-80
2021/11/26 04:37:29;;;;;;;32.40;11.70;;;;;;;3.08;100.00;100381.91;5184371;28;20100;-78
2021/11/26 04:40:01;;;;;;;42.10;12.32;;;;;;;3.06;100.00;100369.75;5184153;28;20030;-78
2021/11/26 04:42:32;;;;;;;34.38;11.55;;;;;;;3.06;100.00;100367.09;5184215;28;20049;-78
2021/11/26 04:45:04;;;;;;;36.03;12.88;;;;;;;3.04;100.00;100371.69;5184953;28;20076;-79
2021/11/26 04:47:35;;;;;;;52.95;14.48;;;;;;;3.04;100.00;100369.03;5184458;28;20113;-79
2021/11/26 04:50:07;;;;;;;40.40;14.27;;;;;;;3.00;100.00;100360.50;5184342;28;20038;-79
2021/11/26 04:52:38;;;;;;;38.38;10.85;;;;;;;2.99;100.00;100365.94;5183806;28;20053;-79
2021/11/26 04:55:11;;;;;;;38.33;10.52;;;;;;;3.01;100.00;100362.22;5184486;28;20128;-80
2021/11/26 04:57:42;;;;;;;39.63;17.00;;;;;;;3.05;100.00;100357.47;5183360;28;20608;-79
2021/11/26 05:00:15;;;;;;;31.48;10.75;;;;;;;2.99;100.00;100350.88;5184356;28;20026;-78
2021/11/26 05:02:46;;;;;;;49.70;15.65;;;;;;;2.98;100.00;100349.22;5184212;28;20445;-79
2021/11/26 05:05:17;;;;;;;46.42;10.90;;;;;;;2.98;100.00;100351.03;5184225;28;20026;-78
2021/11/26 05:07:48;;;;;;;35.28;10.05;;;;;;;2.96;100.00;100339.69;5183057;28;20445;-78
2021/11/26 05:10:20;;;;;;;42.78;8.35;;;;;;;2.90;100.00;100335.75;5184229;28;20187;-78
2021/11/26 05:12:55;;;;;;;33.38;9.57;;;;;;;2.90;100.00;100334.91;5183287;28;20053;-79
2021/11/26 05:15:28;;;;;;;45.75;17.40;;;;;;;2.88;100.00;100328.91;5170997;28;20492;-79
2021/11/26 05:18:01;;;;;;;42.38;14.43;;;;;;;2.85;100.00;100325.53;5183107;28;20118;-78
2021/11/26 05:20:33;;;;;;;51.85;9.63;;;;;;;2.84;100.00;100328.31;5183950;28;20017;-78
2021/11/26 05:23:03;;;;;;;57.83;17.67;;;;;;;2.84;100.00;100323.88;5184507;28;20061;-80
2021/11/26 05:25:34;;;;;;;29.10;8.45;;;;;;;2.81;100.00;100316.19;5184145;28;20144;-79
2021/11/26 05:28:04;;;;;;;34.75;12.05;;;;;;;2.80;100.00;100322.44;5184004;28;20058;-79
2021/11/26 05:30:35;;;;;;;45.28;13.32;;;;;;;2.79;100.00;100320.75;5184125;28;20487;-79
2021/11/26 05:33:07;;;;;;;28.65;7.93;;;;;;;2.79;100.00;100318.13;5182593;28;20033;-79
2021/11/26 05:35:38;;;;;;;32.65;8.63;;;;;;;2.76;100.00;100310.44;5183647;28;20080;-79
2021/11/26 05:38:08;;;;;;;33.53;8.80;;;;;;;2.84;100.00;100301.84;5183593;28;20420;-79
2021/11/26 05:40:40;;;;;;;36.65;8.32;;;;;;;2.80;100.00;100300.41;5183749;28;20141;-78
2021/11/26 05:43:11;;;;;;;30.00;7.57;;;;;;;2.78;100.00;100297.91;5183586;28;20141;-79
2021/11/26 05:45:41;;;;;;;34.80;8.55;;;;;;;2.76;100.00;100294.56;5183948;28;20026;-79
2021/11/26 05:48:12;;;;;;;48.88;18.83;;;;;;;2.74;100.00;100285.03;5183713;28;20022;-79
2021/11/26 05:50:42;;;;;;;45.03;12.70;;;;;;;2.76;100.00;100277.78;5183483;28;20034;-78
2021/11/26 05:53:13;;;;;;;62.83;25.67;;;;;;;2.71;100.00;100275.56;5183017;28;20646;-78
2021/11/26 05:55:44;;;;;;;30.08;6.68;;;;;;;2.64;100.00;100262.94;5185343;28;20041;-81
2021/11/26 05:58:14;;;;;;;39.42;14.10;;;;;;;2.65;100.00;100260.16;5187132;28;20052;-83
2021/11/26 06:00:45;;;;;;;35.00;7.63;;;;;;;2.61;100.00;100256.13;5175419;28;20404;-85
2021/11/26 06:03:15;;;;;;;20.17;7.50;;;;;;;2.57;100.00;100255.53;5184674;28;20029;-81
2021/11/26 06:05:46;;;;;;;43.83;13.55;;;;;;;2.57;100.00;100258.19;5183823;28;20666;-80
2021/11/26 06:08:17;;;;;;;32.13;7.75;;;;;;;2.61;100.00;100245.53;5184362;28;20052;-79
2021/11/26 06:10:47;;;;;;;28.73;8.00;;;;;;;2.58;100.00;100243.13;5165556;28;20451;-78
2021/11/26 06:13:18;;;;;;;20.30;5.93;;;;;;;2.56;100.00;100230.03;5166033;28;20026;-80
2021/11/26 06:15:48;;;;;;;26.95;7.18;;;;;;;2.55;100.00;100222.19;5181439;28;20097;-81
2021/11/26 06:18:19;;;;;;;24.52;5.95;;;;;;;2.53;100.00;100224.13;5194705;28;20060;-76
2021/11/26 06:20:49;;;;;;;33.90;6.70;;;;;;;2.53;100.00;100221.50;5190088;28;20113;-74
2021/11/26 06:23:20;;;;;;;21.02;6.50;;;;;;;2.51;100.00;100212.81;5182687;28;20068;-74
2021/11/26 06:25:50;;;;;;;32.90;9.88;;;;;;;2.47;100.00;100195.53;5184790;28;20477;-76
2021/11/26 06:28:21;;;;;;;22.80;7.28;;;;;;;2.45;100.00;100195.66;5185183;28;20026;-76
2021/11/26 06:30:51;;;;;;;36.88;7.75;;;;;;;2.45;100.00;100192.16;5183059;28;20105;-76
2021/11/26 06:33:22;;;;;;;23.63;7.47;;;;;;;2.46;100.00;100185.91;5183832;28;20021;-76
2021/11/26 06:35:52;;;;;;;35.38;10.60;;;;;;;2.45;100.00;100178.94;5183171;28;20046;-76
2021/11/26 06:38:23;;;;;;;25.10;6.68;;;;;;;2.43;100.00;100176.41;5182385;28;20032;-75
2021/11/26 06:40:53;;;;;;;30.52;6.97;;;;;;;2.44;100.00;100159.56;5183150;28;20021;-76
2021/11/26 06:43:24;;;;;;;23.70;7.90;;;;;;;2.42;100.00;100158.88;5182938;28;20535;-76
2021/11/26 06:45:55;;;;;;;21.45;6.93;;;;;;;2.45;100.00;100163.03;5183793;28;20025;-76
2021/11/26 06:48:27;;;;;;;26.40;7.53;;;;;;;2.41;100.00;100157.19;5182378;28;20087;-76
2021/11/26 06:51:00;;;;;;;21.27;6.60;;;;;;;2.42;100.00;100155.38;5186173;28;20037;-81
2021/11/26 06:53:31;;;;;;;35.03;7.47;;;;;;;2.36;100.00;100148.81;5182853;28;20064;-76
2021/11/26 06:56:01;;;;;;;37.85;7.30;;;;;;;2.34;100.00;100151.56;5182629;28;20069;-75
2021/11/26 06:58:32;;;;;;;23.13;7.75;;;;;;;2.32;100.00;100150.88;5181979;28;20112;-76
2021/11/26 07:01:03;;;;;;;29.10;7.30;;;;;;;2.31;100.00;100146.53;5181166;28;20060;-76
2021/11/26 07:03:33;;;;;;;25.48;7.90;;;;;;;2.31;100.00;100157.13;5180960;28;20240;-76
2021/11/26 07:06:04;;;;;;;22.63;7.85;;;;;;;2.29;100.00;100142.34;5184923;28;20108;-75
2021/11/26 07:08:34;;;;;;;27.48;8.15;;;;;;;2.29;100.00;100140.53;5181117;28;20525;-75
2021/11/26 07:11:05;;;;;;;38.53;12.70;;;;;;;2.28;100.00;100133.56;5166327;28;20072;-75
2021/11/26 07:13:35;;;;;;;30.10;8.45;;;;;;;2.31;100.00;100130.66;5169681;28;20026;-75
2021/11/26 07:16:12;;;;;;;27.42;7.85;;;;;;;2.28;100.00;100136.22;5185172;28;20040;-77
2021/11/26 07:18:43;;;;;;;24.15;8.48;;;;;;;2.27;100.00;100125.75;5192132;28;20062;-77
2021/11/26 07:21:13;;;;;;;26.02;8.32;;;;;;;2.22;100.00;100120.84;5190441;28;20053;-77
2021/11/26 07:23:44;;;;;;;23.80;7.68;;;;;;;2.20;100.00;100112.19;5195358;28;20393;-77
2021/11/26 07:26:15;;;;;;;33.17;9.00;;;;;;;2.17;100.00;100109.81;5194852;28;20044;-78
2021/11/26 07:28:46;;;;;;;28.88;7.75;;;;;;;2.15;100.00;100103.81;5194835;28;20633;-77
2021/11/26 07:31:16;;;;;;;28.77;7.25;;;;;;;2.17;100.00;100104.53;5192633;28;20026;-78
2021/11/26 07:33:47;;;;;;;23.42;7.55;;;;;;;2.20;100.00;100104.25;5181256;28;20096;-75
2021/11/26 07:36:17;;;;;;;26.50;6.78;;;;;;;2.19;100.00;100105.22;5181049;28;20053;-75
2021/11/26 07:38:48;;;;;;;31.98;9.43;;;;;;;2.24;100.00;100108.31;5169789;28;20025;-75
2021/11/26 07:41:18;;;;;;;37.80;9.55;;;;;;;2.21;100.00;100099.78;5185190;28;20493;-75
2021/11/26 07:43:49;;;;;;;49.85;11.85;;;;;;;2.20;100.00;100093.66;5165661;28;20437;-75
2021/11/26 07:46:20;;;;;;;44.45;12.48;;;;;;;2.19;100.00;100102.56;5165931;28;20429;-75
2021/11/26 07:48:50;;;;;;;31.48;8.57;;;;;;;2.16;100.00;100100.22;5165873;28;20038;-75
2021/11/26 07:51:20;;;;;;;26.75;6.72;;;;;;;2.17;100.00;100096.59;5165432;28;20529;-76
2021/11/26 07:53:51;;;;;;;25.02;5.90;;;;;;;2.23;100.00;100082.81;5167412;28;20217;-76
2021/11/26 07:56:21;;;;;;;25.25;6.00;;;;;;;2.21;100.00;100071.53;5165477;28;20490;-75
2021/11/26 07:58:52;;;;;;;21.75;7.30;;;;;;;2.22;100.00;100061.78;5166830;28;20501;-75
2021/11/26 08:01:22;;;;;;;30.27;7.07;;;;;;;2.21;100.00;100054.81;5166190;28;20422;-75
2021/11/26 08:03:53;;;;;;;35.33;5.95;;;;;;;2.27;100.00;100051.66;5166737;28;20030;-74
2021/11/26 08:06:23;;;;;;;20.50;5.45;;;;;;;2.22;100.00;100045.91;5165535;28;20038;-75
2021/11/26 08:08:54;;;;;;;27.23;5.63;;;;;;;2.28;100.00;100035.63;5182564;28;20383;-75
2021/11/26 08:11:24;;;;;;;25.65;5.25;;;;;;;2.29;100.00;100023.22;5176654;28;20030;-76
2021/11/26 08:13:55;;;;;;;28.73;5.32;;;;;;;2.29;100.00;100024.06;5174918;28;20060;-75
2021/11/26 08:16:26;;;;;;;23.15;5.85;;;;;;;2.31;100.00;100022.13;5185853;28;20061;-75
2021/11/26 08:18:56;;;;;;;23.88;5.25;;;;;;;2.32;100.00;100017.69;5186585;28;20457;-78
2021/11/26 08:21:27;;;;;;;21.67;4.38;;;;;;;2.32;100.00;100013.22;5189073;28;20021;-78
2021/11/26 08:23:57;;;;;;;25.70;5.13;;;;;;;2.36;100.00;100000.56;5188476;28;20026;-78
2021/11/26 08:26:28;;;;;;;22.48;4.75;;;;;;;2.41;100.00;100002.78;5188341;28;20153;-78
2021/11/26 08:29:01;;;;;;;23.80;5.68;;;;;;;2.41;100.00;100008.06;5184581;28;20026;-80
2021/11/26 08:31:32;;;;;;;19.63;4.20;;;;;;;2.44;100.00;99998.06;5183776;28;20026;-79
2021/11/26 08:34:03;;;;;;;27.55;4.65;;;;;;;2.51;100.00;99985.09;5184523;28;20040;-86
2021/11/26 08:36:34;;;;;;;21.65;4.38;;;;;;;2.53;100.00;99983.19;5185343;28;20033;-79
2021/11/26 08:39:07;;;;;;;23.40;5.95;;;;;;;2.52;100.00;99978.88;5184904;28;20532;-79
2021/11/26 08:41:38;;;;;;;27.85;4.78;;;;;;;2.53;100.00;99969.94;5183969;28;20480;-79
2021/11/26 08:44:09;;;;;;;21.58;4.97;;;;;;;2.51;100.00;99963.94;5183928;28;20032;-79
2021/11/26 08:46:39;;;;;;;20.08;5.18;;;;;;;2.47;100.00;99947.50;5183048;28;20631;-79
2021/11/26 08:49:10;;;;;;;19.15;5.78;;;;;;;2.45;100.00;99948.59;5182920;28;20489;-80
2021/11/26 08:51:43;;;;;;;26.92;5.57;;;;;;;2.49;100.00;99948.19;5163859;28;20062;-81
2021/11/26 08:54:14;;;;;;;28.10;5.07;;;;;;;2.51;100.00;99929.50;5163630;28;20124;-79
2021/11/26 08:56:45;;;;;;;23.63;4.35;;;;;;;2.51;100.00;99925.09;5162977;28;20026;-79
2021/11/26 08:59:16;;;;;;;24.25;4.93;;;;;;;2.60;100.00;99912.81;5180540;28;20412;-79
2021/11/26 09:01:48;;;;;;;24.88;4.95;;;;;;;2.65;100.00;99915.88;5167285;28;20105;-79
2021/11/26 09:04:19;;;;;;;26.15;5.13;;;;;;;2.71;100.00;99907.41;5184259;28;20030;-79
2021/11/26 09:06:51;;;;;;;25.05;4.50;;;;;;;2.83;100.00;99900.97;5184355;28;20034;-79
2021/11/26 09:09:23;;;;;;;27.95;4.70;;;;;;;2.91;100.00;99891.47;5173235;28;20026;-79
2021/11/26 09:11:53;;;;;;;17.88;4.18;;;;;;;2.96;100.00;99884.81;5172850;28;20433;-79
2021/11/26 09:14:24;;;;;;;17.58;4.35;;;;;;;3.02;100.00;99886.06;5175012;28;20053;-79
2021/11/26 09:16:54;;;;;;;15.93;4.28;;;;;;;3.11;100.00;99877.22;5181066;28;20022;-79
2021/11/26 09:19:25;;;;;;;18.75;4.00;;;;;;;3.14;100.00;99874.31;5164041;28;20051;-79
2021/11/26 09:21:56;;;;;;;19.70;4.57;;;;;;;3.18;100.00;99866.91;5162122;28;20122;-79
2021/11/26 09:24:26;;;;;;;16.85;3.60;;;;;;;3.22;100.00;99863.00;5174911;28;20061;-79
2021/11/26 09:26:57;;;;;;;15.52;3.85;;;;;;;3.26;100.00;99862.59;5183791;28;20497;-79
2021/11/26 09:29:27;;;;;;;19.20;3.92;;;;;;;3.27;100.00;99858.94;5182711;28;20040;-80
2021/11/26 09:31:58;;;;;;;19.33;4.82;;;;;;;3.32;100.00;99851.41;5184159;28;20037;-79
2021/11/26 09:34:28;;;;;;;16.63;3.67;;;;;;;3.31;100.00;99854.19;5183481;28;20018;-79
2021/11/26 09:36:59;;;;;;;14.32;3.83;;;;;;;3.29;100.00;99841.06;5184057;28;20519;-79
2021/11/26 09:39:33;;;;;;;20.02;3.83;;;;;;;3.24;100.00;99838.03;5183598;28;20017;-79
2021/11/26 09:42:03;;;;;;;21.00;3.85;;;;;;;3.24;100.00;99824.75;5183205;28;20493;-79
2021/11/26 09:44:35;;;;;;;13.50;3.70;;;;;;;3.26;100.00;99809.56;5183323;28;20025;-79
2021/11/26 09:47:06;;;;;;;19.35;4.45;;;;;;;3.24;100.00;99803.56;5182142;28;20038;-77
2021/11/26 09:49:37;;;;;;;13.38;3.40;;;;;;;3.28;100.00;99801.47;5182336;28;20033;-77
2021/11/26 09:52:08;;;;;;;11.57;3.20;;;;;;;3.33;100.00;99791.25;5182336;28;20481;-77
2021/11/26 09:54:41;;;;;;;20.35;4.22;;;;;;;3.33;100.00;99794.75;5182061;28;20025;-77
2021/11/26 09:57:12;;;;;;;12.80;3.63;;;;;;;3.38;100.00;99784.53;5160778;28;20034;-77
2021/11/26 09:59:45;;;;;;;14.88;3.70;;;;;;;3.43;100.00;99785.91;5169613;28;20029;-77
2021/11/26 10:02:19;;;;;;;20.88;3.60;;;;;;;3.45;100.00;99768.03;5183476;28;20041;-81
2021/11/26 10:04:58;;;;;;;21.25;4.63;;;;;;;3.52;100.00;99764.66;5185317;28;20180;-76
2021/11/26 10:07:49;;;;;;;17.00;4.50;;;;;;;3.60;100.00;99755.94;5201212;28;20017;-78
2021/11/26 10:13:08;;;;;;;18.67;4.03;;;;;;;3.59;100.00;99733.91;5189678;28;20028;-77
2021/11/26 10:15:42;;;;;;;18.50;4.50;;;;;;;3.66;100.00;99730.66;5188021;28;20813;-75
2021/11/26 10:18:17;;;;;;;16.92;3.58;;;;;;;3.67;100.00;99725.22;5180903;28;20674;-76
2021/11/26 10:21:04;;;;;;;12.57;3.28;;;;;;;3.69;100.00;99727.72;5174642;28;20033;-76
2021/11/26 10:23:38;;;;;;;12.13;3.25;;;;;;;3.70;100.00;99722.25;5178030;28;20036;-76
2021/11/26 10:26:11;;;;;;;14.30;3.72;;;;;;;3.68;100.00;99713.63;5185310;28;20522;-76
2021/11/26 10:28:49;;;;;;;15.48;3.45;;;;;;;3.64;100.00;99704.28;5184632;28;20022;-77
2021/11/26 10:31:24;;;;;;;27.33;3.58;;;;;;;3.58;100.00;99697.75;5181297;28;20026;-77
2021/11/26 10:33:58;;;;;;;17.48;3.10;;;;;;;3.52;100.00;99678.97;5180843;28;20619;-76
2021/11/26 10:36:41;;;;;;;9.95;3.38;;;;;;;3.53;100.00;99662.91;5180336;28;20025;-77
2021/11/26 10:39:16;;;;;;;19.15;5.00;;;;;;;3.53;100.00;99657.59;5184090;28;20519;-76
2021/11/26 10:41:52;;;;;;;8.48;2.70;;;;;;;3.52;100.00;99649.81;5185419;28;20112;-77
2021/11/26 10:44:41;;;;;;;13.13;3.20;;;;;;;3.52;100.00;99649.81;5181326;28;20390;-79
2021/11/26 10:47:18;;;;;;;20.75;3.55;;;;;;;3.54;100.00;99631.91;5168161;28;20029;-79
2021/11/26 10:50:03;;;;;;;20.48;3.63;;;;;;;3.54;100.00;99623.97;5182961;28;20018;-79
2021/11/26 10:52:53;;;;;;;8.63;3.10;;;;;;;3.55;100.00;99613.19;5184794;28;20030;-78
2021/11/26 10:58:19;;;;;;;14.65;3.75;;;;;;;3.55;100.00;99597.28;5162215;28;20451;-79
2021/11/26 11:01:01;;;;;;;16.08;3.70;;;;;;;3.50;100.00;99588.94;5162745;28;20022;-78
2021/11/26 11:03:32;;;;;;;20.58;4.38;;;;;;;3.49;100.00;99586.44;5162840;28;20590;-78
2021/11/26 11:06:02;;;;;;;11.00;3.35;;;;;;;3.48;100.00;99575.00;5163138;28;20026;-78
2021/11/26 11:08:33;;;;;;;17.25;4.85;;;;;;;3.40;100.00;99564.31;5180605;28;20033;-78
2021/11/26 11:11:05;;;;;;;9.48;3.45;;;;;;;3.40;100.00;99550.25;5188071;28;20050;-78
2021/11/26 11:13:35;;;;;;;16.27;4.78;;;;;;;3.39;100.00;99541.44;5178163;28;20117;-78
2021/11/26 11:16:10;;;;;;;13.98;5.00;;;;;;;3.32;100.00;99541.25;5185956;28;20116;-77
2021/11/26 11:18:40;;;;;;;22.00;5.38;;;;;;;3.22;100.00;99537.81;5182811;28;20026;-77
2021/11/26 11:21:11;;;;;;;17.33;5.47;;;;;;;3.22;100.00;99521.09;5162022;28;20026;-78
2021/11/26 11:23:41;;;;;;;14.68;4.68;;;;;;;3.17;100.00;99518.91;5174447;28;20022;-78
2021/11/26 11:26:12;;;;;;;18.50;5.20;;;;;;;3.21;100.00;99504.34;5187168;28;20021;-78
2021/11/26 11:28:44;;;;;;;19.10;6.15;;;;;;;3.23;100.00;99494.44;5188539;28;20030;-79
2021/11/26 11:31:14;;;;;;;14.45;5.68;;;;;;;3.23;100.00;99483.84;5188731;28;20026;-79
2021/11/26 11:33:46;;;;;;;21.67;5.68;;;;;;;3.21;100.00;99477.84;5186082;28;20477;-79
2021/11/26 11:36:16;;;;;;;18.50;5.68;;;;;;;3.18;100.00;99472.03;5185819;28;20034;-78
2021/11/26 11:38:57;;;;;;;12.43;5.50;;;;;;;3.14;100.00;99460.06;5185634;28;20037;-78
2021/11/26 11:41:27;;;;;;;20.88;6.57;;;;;;;3.16;100.00;99445.66;5184589;28;20060;-78
2021/11/26 11:43:58;;;;;;;14.73;6.40;;;;;;;3.17;100.00;99443.88;5168694;28;20084;-78